Time;durP1;ratioP1;P1;durP2;ratioP2;P2;SDS_P1;SDS_P2;PMS_P1;PMS_P2;Temp;Humidity;BMP_temperature;BMP_pressure;BME280_temperature;BME280_humidity;BME280_pressure;Samples;Min_cycle;Max_cycle;Signal;HPM_P1;HPM_P2
2021/12/27 00:01:10;;;;;;;;;;;;;;;21.53;33.75;100840.05;100563;1365;63121;-83
2021/12/27 00:03:57;;;;;;;;;;;;;;;;;;;;;
2021/12/27 00:06:37;;;;;;;;;;;;;;;21.53;33.81;100840.25;100585;1366;72693;-83
2021/12/27 00:09:24;;;;;;;;;;;;;;;;;;;;;
2021/12/27 00:12:02;;;;;;;;;;;;;;;21.52;33.77;100847.95;100386;1369;61319;-83
2021/12/27 00:14:48;;;;;;;;;;;;;;;21.53;33.68;100845.08;100434;1372;61586;-83
2021/12/27 00:17:45;;;;;;;;;;;;;;;;;;;;;
2021/12/27 00:20:35;;;;;;;;;;;;;;;;;;;;;
2021/12/27 00:23:03;;;;;;;;;;;;;;;21.52;33.79;100857.99;101131;1361;61486;-83
2021/12/27 00:25:59;;;;;;;;;;;;;;;21.52;33.78;100842.43;101117;1360;61360;-84
2021/12/27 00:28:34;;;;;;;;;;;;;;;21.53;33.73;100830.59;101161;1365;73206;-82
2021/12/27 00:31:20;;;;;;;;;;;;;;;21.53;33.82;100821.11;101121;1368;76315;-82
2021/12/27 00:34:22;;;;;;;;;;;;;;;;;;;;;
2021/12/27 00:37:10;;;;;;;;;;;;;;;;;;;;;
2021/12/27 00:40:06;;;;;;;;;;;;;;;21.52;33.90;100836.70;101408;1363;73767;-83
2021/12/27 00:42:50;;;;;;;;;;;;;;;;;;;;;
2021/12/27 00:45:39;;;;;;;;;;;;;;;21.52;33.77;100853.73;101314;1365;61390;-83
2021/12/27 00:48:40;;;;;;;;;;;;;;;21.52;33.84;100855.49;101449;1364;61241;-84
2021/12/27 00:51:26;;;;;;;;;;;;;;;;;;;;;
2021/12/27 00:54:28;;;;;;;;;;;;;;;21.52;33.66;100865.17;101429;1357;75890;-80
2021/12/27 00:57:12;;;;;;;;;;;;;;;21.53;33.77;100865.13;101452;1357;61973;-84
2021/12/27 01:00:05;;;;;;;;;;;;;;;21.53;33.74;100865.30;100765;1370;61444;-83
2021/12/27 01:02:45;;;;;;;;;;;;;;;21.53;33.77;100865.69;100822;1369;73689;-82
2021/12/27 01:05:33;;;;;;;;;;;;;;;;;;;;;
2021/12/27 01:08:21;;;;;;;;;;;;;;;;;;;;;
2021/12/27 01:11:23;;;;;;;;;;;;;;;;;;;;;
2021/12/27 01:14:37;;;;;;;;;;;;;;;21.53;33.71;100841.85;101099;1366;71496;-83
2021/12/27 01:17:19;;;;;;;;;;;;;;;21.52;33.70;100842.07;101099;1365;74991;-83
2021/12/27 01:20:03;;;;;;;;;;;;;;;21.53;33.73;100846.88;101064;1368;60237;-83
2021/12/27 01:22:46;;;;;;;;;;;;;;;21.53;33.69;100860.49;101068;1362;61331;-82
2021/12/27 01:28:21;;;;;;;;;;;;;;;21.52;33.75;100853.52;100654;1372;75153;-83
2021/12/27 01:31:06;;;;;;;;;;;;;;;;;;;;;
2021/12/27 01:33:43;;;;;;;;;;;;;;;21.52;33.56;100869.81;100755;1370;61419;-83
2021/12/27 01:36:27;;;;;;;;;;;;;;;21.52;33.73;100871.30;100653;1366;73745;-83
2021/12/27 01:39:17;;;;;;;;;;;;;;;21.51;33.76;100870.96;101309;1363;75803;-83
2021/12/27 01:42:14;;;;;;;;;;;;;;;21.51;33.61;100870.27;101369;1360;61204;-82
2021/12/27 01:48:35;;;;;;;;;;;;;;;;;;;;;
2021/12/27 01:51:04;;;;;;;;;;;;;;;21.51;33.70;100869.36;100270;1372;74937;-83
2021/12/27 01:53:36;;;;;;;;;;;;;;;21.50;33.66;100862.96;100321;1369;61423;-82
2021/12/27 01:56:27;;;;;;;;;;;;;;;;;;;;;
2021/12/27 01:59:13;;;;;;;;;;;;;;;21.50;33.66;100854.91;100261;1369;72976;-82
2021/12/27 02:02:12;;;;;;;;;;;;;;;21.50;33.71;100841.70;100303;1372;74927;-83
2021/12/27 02:04:58;;;;;;;;;;;;;;;21.50;33.62;100844.90;100305;1368;61354;-82
2021/12/27 02:07:43;;;;;;;;;;;;;;;21.50;33.67;100850.98;100668;1371;61348;-82
2021/12/27 02:10:23;;;;;;;;;;;;;;;21.50;33.71;100856.89;101241;1359;72825;-83
2021/12/27 02:13:23;;;;;;;;;;;;;;;;;;;;;
2021/12/27 02:16:15;;;;;;;;;;;;;;;21.50;33.80;100860.84;101327;1365;60142;-83
2021/12/27 02:19:08;;;;;;;;;;;;;;;21.50;33.75;100858.36;101356;1363;61313;-82
2021/12/27 02:22:08;;;;;;;;;;;;;;;21.50;33.64;100854.77;101240;1359;74077;-82
2021/12/27 02:24:44;;;;;;;;;;;;;;;;;;;;;
2021/12/27 02:27:25;;;;;;;;;;;;;;;;;;;;;
2021/12/27 02:30:21;;;;;;;;;;;;;;;21.50;33.75;100857.10;101805;1355;61292;-82
2021/12/27 02:33:10;;;;;;;;;;;;;;;;;;;;;
2021/12/27 02:36:15;;;;;;;;;;;;;;;21.50;33.74;100863.71;101649;1354;73688;-82
2021/12/27 02:39:05;;;;;;;;;;;;;;;21.50;33.77;100859.21;101461;1360;61662;-82
2021/12/27 02:42:01;;;;;;;;;;;;;;;;;;;;;
2021/12/27 02:44:50;;;;;;;;;;;;;;;21.50;33.68;100848.69;101484;1361;72634;-83
2021/12/27 02:47:49;;;;;;;;;;;;;;;21.50;33.76;100850.46;101276;1360;73547;-83
2021/12/27 02:50:33;;;;;;;;;;;;;;;;;;;;;
2021/12/27 02:53:27;;;;;;;;;;;;;;;21.50;33.72;100851.35;101145;1363;61464;-83
2021/12/27 02:56:09;;;;;;;;;;;;;;;21.50;33.75;100856.88;101237;1363;73999;-84
2021/12/27 02:58:55;;;;;;;;;;;;;;;21.50;33.65;100858.85;101207;1360;75227;-83
2021/12/27 03:01:32;;;;;;;;;;;;;;;21.50;33.63;100854.77;101404;1363;61299;-82
2021/12/27 03:04:31;;;;;;;;;;;;;;;21.50;33.61;100849.90;101484;1360;61418;-82
2021/12/27 03:07:14;;;;;;;;;;;;;;;21.50;33.56;100852.27;101467;1357;72798;-82
2021/12/27 03:10:00;;;;;;;;;;;;;;;21.50;33.48;100858.52;101505;1357;75673;-82
2021/12/27 03:12:35;;;;;;;;;;;;;;;21.50;33.48;100854.96;101440;1358;61410;-82
2021/12/27 03:15:19;;;;;;;;;;;;;;;21.50;33.47;100861.05;101835;1357;61618;-82
2021/12/27 03:17:56;;;;;;;;;;;;;;;21.49;33.61;100855.90;101844;1352;72697;-82
2021/12/27 03:20:33;;;;;;;;;;;;;;;21.49;33.60;100851.42;101869;1356;76227;-82
2021/12/27 03:23:32;;;;;;;;;;;;;;;21.49;33.36;100854.84;101888;1356;61196;-83
2021/12/27 03:29:13;;;;;;;;;;;;;;;21.48;33.48;100858.64;101800;1355;72180;-83
2021/12/27 03:32:03;;;;;;;;;;;;;;;21.48;33.60;100853.83;101801;1354;75775;-83
2021/12/27 03:34:42;;;;;;;;;;;;;;;;;;;;;
2021/12/27 03:37:12;;;;;;;;;;;;;;;21.48;33.58;100851.66;101813;1348;61334;-83
2021/12/27 03:39:46;;;;;;;;;;;;;;;21.48;33.68;100849.34;101709;1358;73417;-83
2021/12/27 03:42:49;;;;;;;;;;;;;;;21.48;33.49;100851.50;101808;1351;73474;-83
2021/12/27 03:45:38;;;;;;;;;;;;;;;21.48;33.59;100847.21;101891;1354;61361;-83
2021/12/27 03:48:45;;;;;;;;;;;;;;;21.48;33.51;100838.25;101737;1351;61600;-83
2021/12/27 03:54:22;;;;;;;;;;;;;;;21.48;33.71;100837.15;101554;1358;74939;-83
2021/12/27 03:56:57;;;;;;;;;;;;;;;21.48;33.54;100838.61;101634;1354;61305;-83
2021/12/27 04:02:43;;;;;;;;;;;;;;;;;;;;;
2021/12/27 04:05:36;;;;;;;;;;;;;;;21.49;33.58;100835.90;101548;1354;73520;-83
2021/12/27 04:08:22;;;;;;;;;;;;;;;21.48;33.63;100835.20;101712;1357;61365;-82
2021/12/27 04:10:59;;;;;;;;;;;;;;;21.49;33.64;100831.27;101793;1352;61806;-82
2021/12/27 04:14:05;;;;;;;;;;;;;;;;;;;;;
2021/12/27 04:16:59;;;;;;;;;;;;;;;21.47;33.61;100810.53;101451;1357;74774;-83
2021/12/27 04:19:37;;;;;;;;;;;;;;;21.47;33.58;100797.29;101436;1357;61493;-84
2021/12/27 04:22:38;;;;;;;;;;;;;;;;;;;;;
2021/12/27 04:25:27;;;;;;;;;;;;;;;21.47;33.71;100807.70;100788;1370;72995;-84
2021/12/27 04:28:20;;;;;;;;;;;;;;;21.47;33.64;100810.02;100948;1366;74832;-84
2021/12/27 04:31:14;;;;;;;;;;;;;;;21.47;33.61;100802.13;101450;1357;61592;-83
2021/12/27 04:34:00;;;;;;;;;;;;;;;21.47;33.61;100799.84;101486;1357;61220;-83
2021/12/27 04:36:52;;;;;;;;;;;;;;;21.47;33.61;100806.06;101400;1362;72876;-83
2021/12/27 04:39:39;;;;;;;;;;;;;;;21.47;33.70;100801.27;101436;1363;76354;-83
2021/12/27 04:42:18;;;;;;;;;;;;;;;21.47;33.58;100805.89;101411;1364;61312;-83
2021/12/27 04:45:06;;;;;;;;;;;;;;;21.47;33.55;100800.00;101449;1361;61244;-82
2021/12/27 04:47:54;;;;;;;;;;;;;;;21.47;33.51;100801.79;101365;1359;73868;-83
2021/12/27 04:50:49;;;;;;;;;;;;;;;21.47;33.61;100789.84;101145;1361;73654;-83
2021/12/27 04:53:38;;;;;;;;;;;;;;;21.47;33.62;100793.58;101488;1360;61504;-82
2021/12/27 04:56:34;;;;;;;;;;;;;;;;;;;;;
2021/12/27 04:59:13;;;;;;;;;;;;;;;21.47;33.61;100810.95;101626;1358;72723;-83
2021/12/27 05:01:49;;;;;;;;;;;;;;;;;;;;;
2021/12/27 05:04:44;;;;;;;;;;;;;;;21.46;33.56;100797.58;101881;1356;61205;-84
2021/12/27 05:07:10;;;;;;;;;;;;;;;21.46;33.54;100804.75;101807;1354;61437;-84
2021/12/27 05:09:43;;;;;;;;;;;;;;;21.47;33.66;100808.28;101827;1354;72931;-84
2021/12/27 05:12:23;;;;;;;;;;;;;;;;;;;;;
2021/12/27 05:15:05;;;;;;;;;;;;;;;;;;;;;
2021/12/27 05:17:57;;;;;;;;;;;;;;;21.46;33.62;100812.98;101882;1352;61543;-83
2021/12/27 05:20:40;;;;;;;;;;;;;;;21.46;33.42;100824.95;101870;1352;73637;-82
2021/12/27 05:23:54;;;;;;;;;;;;;;;21.46;33.49;100826.96;101848;1352;74782;-82
2021/12/27 05:26:19;;;;;;;;;;;;;;;;;;;;;
2021/12/27 05:28:58;;;;;;;;;;;;;;;21.46;33.50;100823.02;102039;1345;61413;-83
2021/12/27 05:31:47;;;;;;;;;;;;;;;21.46;33.59;100825.36;102024;1345;74214;-83
2021/12/27 05:34:27;;;;;;;;;;;;;;;21.46;33.78;100827.32;102038;1346;74860;-83
2021/12/27 05:37:31;;;;;;;;;;;;;;;21.46;33.54;100834.27;102062;1349;61826;-83
2021/12/27 05:40:15;;;;;;;;;;;;;;;21.46;33.60;100848.77;102064;1346;61277;-83
2021/12/27 05:43:06;;;;;;;;;;;;;;;;;;;;;
2021/12/27 05:46:03;;;;;;;;;;;;;;;;;;;;;
2021/12/27 05:49:00;;;;;;;;;;;;;;;21.46;33.52;100872.79;102076;1348;61339;-83
2021/12/27 05:51:46;;;;;;;;;;;;;;;21.46;33.57;100870.81;102053;1348;61626;-83
2021/12/27 05:54:29;;;;;;;;;;;;;;;21.46;33.52;100865.64;102085;1343;72403;-83
2021/12/27 05:57:26;;;;;;;;;;;;;;;21.46;33.52;100861.35;102010;1345;73657;-83
2021/12/27 06:00:02;;;;;;;;;;;;;;;21.46;33.60;100856.33;102218;1348;61397;-83
2021/12/27 06:02:51;;;;;;;;;;;;;;;21.46;33.61;100856.52;102119;1346;61460;-83
2021/12/27 06:05:27;;;;;;;;;;;;;;;21.45;33.54;100850.98;102042;1346;73709;-83
2021/12/27 06:08:13;;;;;;;;;;;;;;;21.45;33.44;100852.05;102078;1345;75766;-83
2021/12/27 06:10:58;;;;;;;;;;;;;;;21.46;33.56;100852.91;102023;1345;61154;-84
2021/12/27 06:13:40;;;;;;;;;;;;;;;21.46;33.49;100855.27;102032;1345;61163;-83
2021/12/27 06:16:31;;;;;;;;;;;;;;;21.45;33.60;100853.33;101979;1351;73735;-83
2021/12/27 06:19:17;;;;;;;;;;;;;;;;;;;;;
2021/12/27 06:22:03;;;;;;;;;;;;;;;21.45;33.59;100845.08;102046;1345;61969;-83
2021/12/27 06:24:49;;;;;;;;;;;;;;;21.45;33.54;100839.05;102085;1349;61192;-83
2021/12/27 06:27:35;;;;;;;;;;;;;;;;;;;;;
2021/12/27 06:30:42;;;;;;;;;;;;;;;21.46;33.55;100843.80;102042;1345;76256;-83
2021/12/27 06:33:27;;;;;;;;;;;;;;;;;;;;;
2021/12/27 06:36:09;;;;;;;;;;;;;;;21.45;33.53;100852.96;102025;1349;61275;-83
2021/12/27 06:39:03;;;;;;;;;;;;;;;21.46;33.52;100848.30;102046;1348;72056;-83
2021/12/27 06:41:29;;;;;;;;;;;;;;;21.46;33.62;100849.55;101726;1350;75863;-84
2021/12/27 06:44:19;;;;;;;;;;;;;;;;;;;;;
2021/12/27 06:46:59;;;;;;;;;;;;;;;;;;;;;
2021/12/27 06:49:51;;;;;;;;;;;;;;;21.46;33.68;100865.61;101740;1351;72761;-83
2021/12/27 06:52:27;;;;;;;;;;;;;;;21.46;33.61;100862.41;101675;1354;75727;-83
2021/12/27 06:55:07;;;;;;;;;;;;;;;21.46;33.66;100859.92;101731;1358;61437;-84
2021/12/27 06:57:54;;;;;;;;;;;;;;;;;;;;;
2021/12/27 07:00:51;;;;;;;;;;;;;;;21.46;33.67;100845.23;101670;1354;71520;-83
2021/12/27 07:03:34;;;;;;;;;;;;;;;21.46;33.61;100836.63;101752;1351;75680;-84
2021/12/27 07:06:09;;;;;;;;;;;;;;;21.46;33.59;100836.45;101678;1359;61398;-84
2021/12/27 07:09:03;;;;;;;;;;;;;;;21.46;33.57;100830.16;101683;1353;60633;-83
2021/12/27 07:11:42;;;;;;;;;;;;;;;21.46;33.54;100825.89;101730;1351;72813;-83
2021/12/27 07:14:25;;;;;;;;;;;;;;;21.46;33.82;100825.67;97777;1351;5553375;-82
2021/12/27 07:17:07;;;;;;;;;;;;;;;;;;;;;
2021/12/27 07:19:53;;;;;;;;;;;;;;;21.47;33.69;100835.14;101989;1346;61215;-83
2021/12/27 07:22:53;;;;;;;;;;;;;;;;;;;;;
2021/12/27 07:25:23;;;;;;;;;;;;;;;21.46;33.65;100830.85;102019;1346;75716;-83
2021/12/27 07:28:29;;;;;;;;;;;;;;;21.46;33.54;100825.48;101783;1354;61348;-84
2021/12/27 07:31:14;;;;;;;;;;;;;;;21.47;33.77;100820.95;101813;1352;62515;-82
2021/12/27 07:33:43;;;;;;;;;;;;;;;21.47;33.67;100824.55;101813;1351;72567;-82
2021/12/27 07:36:31;;;;;;;;;;;;;;;21.47;33.57;100814.86;101825;1351;74988;-84
2021/12/27 07:39:12;;;;;;;;;;;;;;;21.47;33.62;100809.30;101801;1354;61108;-83
2021/12/27 07:41:58;;;;;;;;;;;;;;;21.47;33.79;100803.58;101804;1348;61313;-82
2021/12/27 07:45:08;;;;;;;;;;;;;;;21.47;33.72;100811.66;101769;1352;71390;-84
2021/12/27 07:47:58;;;;;;;;;;;;;;;;;;;;;
2021/12/27 07:50:50;;;;;;;;;;;;;;;21.47;33.89;100825.60;101766;1356;61796;-83
2021/12/27 07:53:29;;;;;;;;;;;;;;;;;;;;;
2021/12/27 07:56:15;;;;;;;;;;;;;;;21.48;33.74;100804.06;101861;1351;73187;-83
2021/12/27 07:59:10;;;;;;;;;;;;;;;21.47;33.50;100802.47;101815;1354;73690;-83
2021/12/27 08:01:40;;;;;;;;;;;;;;;21.48;33.66;100812.32;101744;1358;61264;-83
2021/12/27 08:04:35;;;;;;;;;;;;;;;21.48;33.71;100813.01;101787;1354;61438;-83
2021/12/27 08:07:03;;;;;;;;;;;;;;;21.48;33.85;100811.03;101722;1357;73061;-82
2021/12/27 08:09:54;;;;;;;;;;;;;;;;;;;;;
2021/12/27 08:12:32;;;;;;;;;;;;;;;21.48;33.65;100822.85;101773;1355;61235;-83
2021/12/27 08:15:38;;;;;;;;;;;;;;;21.48;33.84;100826.05;101730;1358;61187;-84
2021/12/27 08:18:20;;;;;;;;;;;;;;;21.49;33.66;100825.87;101749;1357;72888;-83
2021/12/27 08:21:12;;;;;;;;;;;;;;;21.49;33.75;100822.98;101676;1354;75859;-84
2021/12/27 08:23:52;;;;;;;;;;;;;;;21.49;33.75;100823.66;101463;1356;61404;-83
2021/12/27 08:27:07;;;;;;;;;;;;;;;21.49;33.76;100815.11;101357;1357;61509;-82
2021/12/27 08:29:41;;;;;;;;;;;;;;;21.49;33.71;100816.48;100749;1370;74053;-83
2021/12/27 08:32:32;;;;;;;;;;;;;;;21.49;33.66;100821.14;100686;1369;74961;-83
2021/12/27 08:35:25;;;;;;;;;;;;;;;;;;;;;
2021/12/27 08:38:17;;;;;;;;;;;;;;;21.50;33.73;100805.73;100641;1365;61221;-83
2021/12/27 08:41:34;;;;;;;;;;;;;;;21.49;33.71;100796.41;100569;1365;70605;-84
2021/12/27 08:44:13;;;;;;;;;;;;;;;21.49;33.69;100785.33;100645;1365;74940;-83
2021/12/27 08:46:51;;;;;;;;;;;;;;;;;;;;;
2021/12/27 08:50:03;;;;;;;;;;;;;;;;;;;;;
2021/12/27 08:52:50;;;;;;;;;;;;;;;21.50;33.71;100787.41;100403;1373;73970;-83
2021/12/27 08:55:43;;;;;;;;;;;;;;;21.50;33.73;100771.48;100394;1369;74760;-84
2021/12/27 08:58:31;;;;;;;;;;;;;;;21.50;33.67;100773.65;100403;1373;61234;-84
2021/12/27 09:01:16;;;;;;;;;;;;;;;;;;;;;
2021/12/27 09:04:04;;;;;;;;;;;;;;;;;;;;;
2021/12/27 09:06:50;;;;;;;;;;;;;;;21.50;33.72;100779.18;100722;1366;75867;-83
2021/12/27 09:09:39;;;;;;;;;;;;;;;21.50;33.71;100769.33;101043;1362;61396;-83
2021/12/27 09:12:08;;;;;;;;;;;;;;;21.50;33.83;100772.02;100966;1363;61366;-82
2021/12/27 09:14:45;;;;;;;;;;;;;;;;;;;;;
2021/12/27 09:17:34;;;;;;;;;;;;;;;21.50;33.64;100764.86;101014;1366;74828;-83
2021/12/27 09:20:22;;;;;;;;;;;;;;;21.50;33.77;100745.90;100828;1368;61600;-82
2021/12/27 09:23:08;;;;;;;;;;;;;;;21.50;33.61;100738.73;101053;1367;61200;-83
2021/12/27 09:25:59;;;;;;;;;;;;;;;21.50;33.87;100741.80;101053;1363;72564;-83
2021/12/27 09:28:45;;;;;;;;;;;;;;;21.49;33.77;100738.60;100845;1368;76564;-83
2021/12/27 09:31:38;;;;;;;;;;;;;;;21.50;33.76;100750.04;101379;1363;61498;-83
2021/12/27 09:34:33;;;;;;;;;;;;;;;21.50;33.72;100743.60;101341;1360;61622;-83
2021/12/27 09:37:22;;;;;;;;;;;;;;;21.50;33.82;100727.12;101021;1369;73918;-83
2021/12/27 09:39:55;;;;;;;;;;;;;;;21.50;33.79;100735.02;100802;1369;73495;-83
2021/12/27 09:42:52;;;;;;;;;;;;;;;21.50;33.67;100740.16;100404;1369;61337;-83
2021/12/27 09:45:37;;;;;;;;;;;;;;;21.50;33.73;100732.48;100323;1372;61855;-83
2021/12/27 09:48:13;;;;;;;;;;;;;;;21.50;33.69;100721.36;100314;1369;72875;-83
2021/12/27 09:51:19;;;;;;;;;;;;;;;21.50;33.72;100721.19;100307;1369;73566;-83
2021/12/27 09:53:54;;;;;;;;;;;;;;;21.50;33.68;100728.13;100288;1368;59861;-83
2021/12/27 09:56:49;;;;;;;;;;;;;;;21.50;33.72;100718.30;100315;1374;61561;-84
2021/12/27 09:59:31;;;;;;;;;;;;;;;21.50;33.69;100718.30;100246;1371;74160;-84
2021/12/27 10:02:15;;;;;;;;;;;;;;;;;;;;;
2021/12/27 10:05:20;;;;;;;;;;;;;;;;;;;;;
2021/12/27 10:08:29;;;;;;;;;;;;;;;;;;;;;
2021/12/27 10:10:57;;;;;;;;;;;;;;;21.51;33.69;100727.40;99355;1380;74293;-83
2021/12/27 10:14:01;;;;;;;;;;;;;;;21.50;33.79;100713.83;99368;1383;75982;-82
2021/12/27 10:17:08;;;;;;;;;;;;;;;21.51;33.75;100700.91;99589;1383;61582;-83
2021/12/27 10:20:19;;;;;;;;;;;;;;;;;;;;;
2021/12/27 10:23:05;;;;;;;;;;;;;;;21.51;33.66;100691.24;100183;1377;73243;-83
2021/12/27 10:25:57;;;;;;;;;;;;;;;21.51;33.66;100686.73;99145;1388;73623;-83
2021/12/27 10:29:25;;;;;;;;;;;;;;;21.51;33.77;100675.29;99114;1382;61272;-83
2021/12/27 10:32:09;;;;;;;;;;;;;;;21.50;33.70;100677.10;99208;1389;60376;-83
2021/12/27 10:34:58;;;;;;;;;;;;;;;;;;;;;
2021/12/27 10:37:44;;;;;;;;;;;;;;;21.51;33.67;100677.61;99107;1386;75254;-83
2021/12/27 10:40:17;;;;;;;;;;;;;;;21.51;33.73;100667.96;99295;1385;61429;-83
2021/12/27 10:43:00;;;;;;;;;;;;;;;21.50;33.69;100676.05;99285;1381;61272;-83
2021/12/27 10:45:55;;;;;;;;;;;;;;;21.50;33.65;100689.30;99248;1387;72016;-83
2021/12/27 10:48:34;;;;;;;;;;;;;;;;;;;;;
2021/12/27 10:51:36;;;;;;;;;;;;;;;21.50;33.60;100699.49;99992;1374;61854;-83
2021/12/27 10:54:31;;;;;;;;;;;;;;;21.50;33.73;100684.64;100152;1378;61907;-83
2021/12/27 10:57:02;;;;;;;;;;;;;;;21.50;33.66;100677.83;100151;1375;73878;-82
2021/12/27 10:59:41;;;;;;;;;;;;;;;21.50;33.63;100683.05;100179;1378;73798;-83
2021/12/27 11:02:18;;;;;;;;;;;;;;;;;;;;;
2021/12/27 11:04:54;;;;;;;;;;;;;;;21.50;33.62;100666.40;100879;1368;61398;-83
2021/12/27 11:08:01;;;;;;;;;;;;;;;21.50;33.72;100656.92;100914;1363;71724;-83
2021/12/27 11:10:31;;;;;;;;;;;;;;;21.49;33.69;100655.71;101550;1363;75718;-83
2021/12/27 11:13:30;;;;;;;;;;;;;;;;;;;;;
2021/12/27 11:16:22;;;;;;;;;;;;;;;21.49;33.78;100640.66;101493;1356;63082;-84
2021/12/27 11:19:08;;;;;;;;;;;;;;;21.49;33.81;100629.24;101518;1362;72870;-82
2021/12/27 11:21:45;;;;;;;;;;;;;;;21.49;33.81;100624.38;101476;1363;74914;-82
2021/12/27 11:24:49;;;;;;;;;;;;;;;21.49;33.76;100618.13;101375;1363;61252;-84
2021/12/27 11:27:31;;;;;;;;;;;;;;;21.49;33.86;100614.91;101531;1363;61645;-84
2021/12/27 11:30:25;;;;;;;;;;;;;;;21.49;33.73;100619.73;101479;1363;72986;-84
2021/12/27 11:33:12;;;;;;;;;;;;;;;21.49;33.75;100617.61;101473;1363;75553;-83
2021/12/27 11:36:01;;;;;;;;;;;;;;;21.49;33.82;100621.35;101537;1357;61335;-84
2021/12/27 11:38:51;;;;;;;;;;;;;;;21.49;33.65;100622.98;101461;1355;61466;-84
2021/12/27 11:41:43;;;;;;;;;;;;;;;21.49;33.73;100613.85;101543;1359;72548;-82
2021/12/27 11:44:29;;;;;;;;;;;;;;;21.48;33.88;100617.09;101741;1351;75471;-82
2021/12/27 11:47:30;;;;;;;;;;;;;;;21.49;33.88;100628.19;101777;1351;61576;-82
2021/12/27 11:50:25;;;;;;;;;;;;;;;21.49;33.84;100627.83;101736;1351;61628;-83
2021/12/27 11:53:00;;;;;;;;;;;;;;;21.49;33.65;100624.23;101665;1357;75281;-83
2021/12/27 11:55:39;;;;;;;;;;;;;;;21.49;33.64;100621.72;101703;1359;76213;-84
2021/12/27 11:58:27;;;;;;;;;;;;;;;21.49;33.79;100618.12;101701;1351;61235;-83
2021/12/27 12:01:02;;;;;;;;;;;;;;;21.49;33.72;100621.91;101708;1357;61175;-83
2021/12/27 12:03:56;;;;;;;;;;;;;;;21.49;33.69;100624.06;101738;1357;72755;-83
2021/12/27 12:07:10;;;;;;;;;;;;;;;;;;;;;
2021/12/27 12:09:55;;;;;;;;;;;;;;;21.48;33.68;100628.05;101458;1363;61235;-83
2021/12/27 12:12:40;;;;;;;;;;;;;;;21.49;33.77;100621.03;101436;1363;61320;-83
2021/12/27 12:15:23;;;;;;;;;;;;;;;21.48;33.78;100623.17;101422;1361;73985;-83
2021/12/27 12:18:18;;;;;;;;;;;;;;;21.49;33.72;100625.16;101265;1366;73608;-83
2021/12/27 12:21:18;;;;;;;;;;;;;;;21.49;33.72;100630.71;101296;1365;61330;-83
2021/12/27 12:24:21;;;;;;;;;;;;;;;21.49;33.78;100630.34;101294;1363;61581;-83
2021/12/27 12:27:07;;;;;;;;;;;;;;;21.48;33.75;100634.83;101177;1367;73873;-83
2021/12/27 12:29:47;;;;;;;;;;;;;;;21.49;33.80;100635.66;101269;1360;74767;-83
2021/12/27 12:32:35;;;;;;;;;;;;;;;21.49;33.90;100633.70;101303;1367;61670;-83
2021/12/27 12:35:12;;;;;;;;;;;;;;;;;;;;;
2021/12/27 12:37:58;;;;;;;;;;;;;;;21.49;33.92;100622.45;101661;1360;73689;-83
2021/12/27 12:40:27;;;;;;;;;;;;;;;21.49;33.83;100617.59;101567;1361;74718;-83
2021/12/27 12:43:43;;;;;;;;;;;;;;;;;;;;;
2021/12/27 12:46:36;;;;;;;;;;;;;;;21.49;33.61;100610.30;101852;1351;60658;-83
2021/12/27 12:49:26;;;;;;;;;;;;;;;21.49;33.53;100612.23;101871;1352;72645;-83
2021/12/27 12:52:12;;;;;;;;;;;;;;;21.49;33.66;100610.64;102224;1349;74796;-84
2021/12/27 12:54:54;;;;;;;;;;;;;;;21.48;33.72;100606.55;102133;1348;61396;-83
2021/12/27 12:57:48;;;;;;;;;;;;;;;;;;;;;
2021/12/27 13:00:25;;;;;;;;;;;;;;;21.48;33.69;100589.73;102204;1350;73773;-84
2021/12/27 13:03:36;;;;;;;;;;;;;;;21.48;33.70;100575.60;102141;1350;73519;-83
2021/12/27 13:06:12;;;;;;;;;;;;;;;21.48;33.73;100544.98;102223;1349;61201;-83
2021/12/27 13:09:22;;;;;;;;;;;;;;;21.48;33.64;100549.06;102212;1350;61297;-82
2021/12/27 13:12:07;;;;;;;;;;;;;;;21.48;33.75;100550.89;102145;1342;72793;-83
2021/12/27 13:15:31;;;;;;;;;;;;;;;;;;;;;
2021/12/27 13:18:03;;;;;;;;;;;;;;;21.48;33.78;100545.69;101290;1363;61305;-83
2021/12/27 13:20:36;;;;;;;;;;;;;;;21.48;33.80;100553.19;101305;1363;61622;-83
2021/12/27 13:23:38;;;;;;;;;;;;;;;21.48;33.75;100551.92;101297;1362;71470;-83
2021/12/27 13:26:27;;;;;;;;;;;;;;;;;;;;;
2021/12/27 13:29:00;;;;;;;;;;;;;;;21.48;33.81;100551.94;101143;1363;61368;-83
2021/12/27 13:31:45;;;;;;;;;;;;;;;21.48;33.67;100549.61;101045;1363;61213;-84
2021/12/27 13:34:19;;;;;;;;;;;;;;;21.48;33.78;100541.03;101074;1359;73865;-83
2021/12/27 13:36:56;;;;;;;;;;;;;;;21.49;33.74;100538.13;100977;1367;73990;-83
2021/12/27 13:39:34;;;;;;;;;;;;;;;21.49;33.74;100531.28;101076;1363;61189;-80
2021/12/27 13:42:36;;;;;;;;;;;;;;;21.49;33.70;100518.98;101162;1365;61365;-82
2021/12/27 13:45:22;;;;;;;;;;;;;;;21.48;33.75;100516.34;101260;1360;72675;-84
2021/12/27 13:48:38;;;;;;;;;;;;;;;21.48;33.70;100518.09;100335;1373;73756;-83
2021/12/27 13:51:08;;;;;;;;;;;;;;;21.48;33.64;100513.98;100511;1371;61318;-84
2021/12/27 13:54:15;;;;;;;;;;;;;;;21.48;33.70;100526.88;101779;1351;61514;-83
2021/12/27 13:56:57;;;;;;;;;;;;;;;21.48;33.80;100533.33;101737;1357;72716;-83
2021/12/27 13:59:37;;;;;;;;;;;;;;;21.48;33.83;100524.04;101801;1351;74834;-83
2021/12/27 14:02:46;;;;;;;;;;;;;;;21.48;33.76;100514.56;101723;1357;61303;-83
2021/12/27 14:05:33;;;;;;;;;;;;;;;21.48;33.87;100515.09;101495;1363;61279;-83
2021/12/27 14:08:35;;;;;;;;;;;;;;;;;;;;;
2021/12/27 14:11:10;;;;;;;;;;;;;;;21.47;33.65;100549.14;101435;1363;75025;-83
2021/12/27 14:14:19;;;;;;;;;;;;;;;21.48;33.76;100553.42;101426;1362;61232;-83
2021/12/27 14:17:04;;;;;;;;;;;;;;;21.48;33.75;100556.48;101270;1362;61186;-84
2021/12/27 14:20:02;;;;;;;;;;;;;;;21.48;33.64;100547.34;101453;1364;72992;-83
2021/12/27 14:22:55;;;;;;;;;;;;;;;;;;;;;
2021/12/27 14:25:38;;;;;;;;;;;;;;;21.48;33.69;100540.90;101282;1358;61316;-83
2021/12/27 14:28:22;;;;;;;;;;;;;;;21.48;33.83;100543.95;101445;1358;61615;-83
2021/12/27 14:30:53;;;;;;;;;;;;;;;21.47;33.69;100551.46;101443;1357;72697;-83
2021/12/27 14:33:28;;;;;;;;;;;;;;;21.48;33.86;100559.11;101478;1358;75507;-80
2021/12/27 14:36:14;;;;;;;;;;;;;;;21.48;33.79;100561.66;101569;1359;62568;-81
2021/12/27 14:38:59;;;;;;;;;;;;;;;21.48;33.92;100556.60;101606;1359;61450;-81
2021/12/27 14:41:28;;;;;;;;;;;;;;;21.48;33.62;100562.39;101574;1358;72737;-82
2021/12/27 14:44:21;;;;;;;;;;;;;;;21.48;33.75;100562.87;101862;1345;75306;-82
2021/12/27 14:47:01;;;;;;;;;;;;;;;21.48;33.64;100571.48;102028;1343;61323;-81
2021/12/27 14:49:30;;;;;;;;;;;;;;;21.48;33.77;100580.77;102051;1349;61329;-81
2021/12/27 14:52:08;;;;;;;;;;;;;;;21.48;33.63;100580.62;101974;1350;72856;-80
2021/12/27 14:54:53;;;;;;;;;;;;;;;;;;;;;
2021/12/27 14:57:38;;;;;;;;;;;;;;;21.48;33.79;100576.15;102174;1343;61192;-83
2021/12/27 15:00:27;;;;;;;;;;;;;;;21.47;33.75;100570.28;102181;1346;61219;-84
2021/12/27 15:03:13;;;;;;;;;;;;;;;21.47;33.66;100568.84;102180;1348;72803;-83
2021/12/27 15:05:52;;;;;;;;;;;;;;;;;;;;;
2021/12/27 15:08:56;;;;;;;;;;;;;;;;;;;;;
2021/12/27 15:11:51;;;;;;;;;;;;;;;21.46;33.77;100540.69;101714;1357;61569;-83
2021/12/27 15:14:35;;;;;;;;;;;;;;;21.45;33.67;100549.31;97700;1355;5762813;-83
2021/12/27 15:17:23;;;;;;;;;;;;;;;21.45;33.78;100545.21;101703;1358;71740;-83
2021/12/27 15:20:03;;;;;;;;;;;;;;;21.44;33.67;100534.52;101679;1355;73738;-83
2021/12/27 15:22:42;;;;;;;;;;;;;;;;;;;;;
2021/12/27 15:25:17;;;;;;;;;;;;;;;21.44;33.84;100525.41;101781;1351;61187;-84
2021/12/27 15:28:15;;;;;;;;;;;;;;;21.43;33.76;100526.34;101722;1357;73158;-83
2021/12/27 15:31:10;;;;;;;;;;;;;;;21.43;33.70;100527.26;101438;1364;75729;-83
2021/12/27 15:33:44;;;;;;;;;;;;;;;21.43;33.77;100530.32;100497;1366;61223;-83
2021/12/27 15:36:33;;;;;;;;;;;;;;;21.43;33.70;100529.61;100857;1369;61317;-84
2021/12/27 15:39:36;;;;;;;;;;;;;;;21.42;33.62;100525.20;100741;1369;72810;-83
2021/12/27 15:42:14;;;;;;;;;;;;;;;21.42;33.73;100524.63;100720;1366;74883;-83
2021/12/27 15:45:20;;;;;;;;;;;;;;;21.42;33.81;100523.41;101235;1366;61698;-83
2021/12/27 15:47:56;;;;;;;;;;;;;;;21.42;33.69;100524.32;101157;1365;61272;-84
2021/12/27 15:51:08;;;;;;;;;;;;;;;21.42;33.70;100531.08;100577;1365;71491;-83
2021/12/27 15:54:04;;;;;;;;;;;;;;;;;;;;;
2021/12/27 15:56:50;;;;;;;;;;;;;;;21.42;33.66;100543.65;100248;1375;61256;-83